createdAt,value
2018-09-01T00:00:53.964Z,0.00
2018-09-01T00:01:53.983Z,0.00
2018-09-01T00:02:53.994Z,0.00
2018-09-01T00:03:54.028Z,0.00
2018-09-01T00:04:54.003Z,0.00
2018-09-01T00:05:54.081Z,0.00
2018-09-01T00:06:54.027Z,0.00
2018-09-01T00:07:54.056Z,0.00
2018-09-01T00:08:54.089Z,0.00
2018-09-01T00:09:54.096Z,0.00
2018-09-01T00:10:54.100Z,0.00
2018-09-01T00:11:54.117Z,0.00
2018-09-01T00:12:54.110Z,0.00
2018-09-01T00:13:54.119Z,0.00
2018-09-01T00:14:54.104Z,0.00
2018-09-01T00:15:54.132Z,0.00
2018-09-01T00:16:54.165Z,0.00
2018-09-01T00:17:54.147Z,0.00
2018-09-01T00:18:54.167Z,0.00
2018-09-01T00:19:54.186Z,0.00
2018-09-01T00:20:54.186Z,0.00
2018-09-01T00:21:54.202Z,0.00
2018-09-01T00:22:54.220Z,0.00
2018-09-01T00:23:54.240Z,0.00
2018-09-01T00:24:54.217Z,0.00
2018-09-01T00:25:54.237Z,0.00
2018-09-01T00:26:54.253Z,0.00
2018-09-01T00:27:54.303Z,0.00
2018-09-01T00:28:54.290Z,0.00
2018-09-01T00:29:54.298Z,0.00
2018-09-01T00:30:54.277Z,0.00
2018-09-01T00:31:54.278Z,0.00
2018-09-01T00:32:54.284Z,0.00
2018-09-01T00:33:54.331Z,0.00
2018-09-01T00:34:54.359Z,0.00
2018-09-01T00:35:54.343Z,0.00
2018-09-01T00:36:54.330Z,0.00
2018-09-01T00:37:54.371Z,0.00
2018-09-01T00:38:54.391Z,0.00
2018-09-01T00:39:54.454Z,0.00
2018-09-01T00:40:54.409Z,0.00
2018-09-01T00:41:54.378Z,0.00
2018-09-01T00:42:54.429Z,0.00
2018-09-01T00:43:54.445Z,0.00
2018-09-01T00:44:54.446Z,0.00
2018-09-01T00:45:54.433Z,0.00
2018-09-01T00:46:54.430Z,0.00
2018-09-01T00:47:54.481Z,0.00
2018-09-01T00:48:54.507Z,0.00
2018-09-01T00:49:54.510Z,0.00
2018-09-01T00:50:54.478Z,0.00
2018-09-01T00:51:54.496Z,0.00
2018-09-01T00:52:54.515Z,0.00
2018-09-01T00:53:54.562Z,0.00
2018-09-01T00:54:54.545Z,0.00
2018-09-01T00:55:54.566Z,0.00
2018-09-01T00:56:54.564Z,0.00
2018-09-01T00:57:54.551Z,0.00
2018-09-01T00:58:54.565Z,0.00
2018-09-01T00:59:54.591Z,0.00
2018-09-01T01:00:54.626Z,0.00
2018-09-01T01:01:54.593Z,0.00
2018-09-01T01:02:54.598Z,0.00
2018-09-01T01:03:54.653Z,0.00
2018-09-01T01:04:54.657Z,0.00
2018-09-01T01:05:54.649Z,0.00
2018-09-01T01:06:54.653Z,0.00
2018-09-01T01:07:54.661Z,0.00
2018-09-01T01:08:54.702Z,0.00
2018-09-01T01:09:54.695Z,0.00
2018-09-01T01:10:54.706Z,0.00
2018-09-01T01:11:54.716Z,0.00
2018-09-01T01:12:54.717Z,0.00
2018-09-01T01:13:54.731Z,0.00
2018-09-01T01:14:54.727Z,0.00
2018-09-01T01:15:54.763Z,0.00
2018-09-01T01:16:54.743Z,0.00
2018-09-01T01:17:54.751Z,0.00
2018-09-01T01:18:54.777Z,0.00
2018-09-01T01:19:54.795Z,0.00
2018-09-01T01:20:54.810Z,0.00
2018-09-01T01:21:54.788Z,0.00
2018-09-01T01:22:54.804Z,0.00
2018-09-01T01:23:54.833Z,0.00
2018-09-01T01:24:54.829Z,0.00
2018-09-01T01:25:54.895Z,0.00
2018-09-01T01:26:54.866Z,0.00
2018-09-01T01:27:54.861Z,0.00
2018-09-01T01:28:54.853Z,0.00
2018-09-01T01:29:54.895Z,0.00
2018-09-01T01:30:54.922Z,0.00
2018-09-01T01:31:54.937Z,0.00
2018-09-01T01:32:54.946Z,0.00
2018-09-01T01:33:54.993Z,0.00
2018-09-01T01:34:54.948Z,0.00
2018-09-01T01:35:54.961Z,0.00
2018-09-01T01:36:54.992Z,0.00
2018-09-01T01:37:54.982Z,0.00
2018-09-01T01:38:54.962Z,0.00
2018-09-01T01:39:54.972Z,0.00
2018-09-01T01:40:55.030Z,0.00
2018-09-01T01:41:55.029Z,0.00
2018-09-01T01:42:55.041Z,0.00
2018-09-01T01:43:55.073Z,0.00
2018-09-01T01:44:55.023Z,0.00
2018-09-01T01:45:55.045Z,0.00
2018-09-01T01:46:55.049Z,0.00
2018-09-01T01:47:55.093Z,0.00
2018-09-01T01:48:55.057Z,0.00
2018-09-01T01:49:55.082Z,0.00
2018-09-01T01:50:55.081Z,0.00
2018-09-01T01:51:55.170Z,0.00
2018-09-01T01:52:55.101Z,0.00
2018-09-01T01:53:55.120Z,0.00
2018-09-01T01:54:55.133Z,0.00
2018-09-01T01:55:55.157Z,0.00
2018-09-01T01:56:55.148Z,0.00
2018-09-01T01:57:55.201Z,0.00
2018-09-01T01:58:55.208Z,0.00
2018-09-01T01:59:55.183Z,0.00
2018-09-01T02:00:55.182Z,0.00
2018-09-01T02:01:55.191Z,0.00
2018-09-01T02:02:55.242Z,0.00
2018-09-01T02:03:55.216Z,0.00
2018-09-01T02:04:55.238Z,0.00
2018-09-01T02:05:55.257Z,0.00
2018-09-01T02:06:55.240Z,0.00
2018-09-01T02:07:55.301Z,0.00
2018-09-01T02:08:55.277Z,0.00
2018-09-01T02:09:55.288Z,0.00
2018-09-01T02:10:55.314Z,0.00
2018-09-01T02:11:55.314Z,0.00
2018-09-01T02:12:55.349Z,0.00
2018-09-01T02:13:55.331Z,0.00
2018-09-01T02:14:55.342Z,0.00
2018-09-01T02:15:55.342Z,0.00
2018-09-01T02:16:55.346Z,0.00
2018-09-01T02:17:55.375Z,0.00
2018-09-01T02:18:55.387Z,0.00
2018-09-01T02:19:55.431Z,0.00
2018-09-01T02:20:55.373Z,0.00
2018-09-01T02:21:55.385Z,0.00
2018-09-01T02:22:55.413Z,0.00
2018-09-01T02:23:55.418Z,0.00
2018-09-01T02:24:55.426Z,0.00
2018-09-01T02:25:55.454Z,0.00
2018-09-01T02:26:55.444Z,0.00
2018-09-01T02:27:55.467Z,0.00
2018-09-01T02:28:55.493Z,0.00
2018-09-01T02:29:55.494Z,0.00
2018-09-01T02:30:55.549Z,0.00
2018-09-01T02:31:55.480Z,0.00
2018-09-01T02:32:55.508Z,0.00
2018-09-01T02:33:55.558Z,0.00
2018-09-01T02:34:55.522Z,0.00
2018-09-01T02:35:55.542Z,0.00
2018-09-01T02:36:55.552Z,0.00
2018-09-01T02:37:55.549Z,0.00
2018-09-01T02:38:55.577Z,0.00
2018-09-01T02:39:55.632Z,0.00
2018-09-01T02:40:55.579Z,0.00
2018-09-01T02:41:55.576Z,0.00
2018-09-01T02:42:55.610Z,0.00
2018-09-01T02:43:55.626Z,0.00
2018-09-01T02:44:55.636Z,0.00
2018-09-01T02:45:55.644Z,0.00
2018-09-01T02:46:55.641Z,0.00
2018-09-01T02:47:55.667Z,0.00
2018-09-01T02:48:55.658Z,0.00
2018-09-01T02:49:55.650Z,0.00
2018-09-01T02:50:55.662Z,0.00
2018-09-01T02:51:55.713Z,0.00
2018-09-01T02:52:55.679Z,0.00
2018-09-01T02:53:55.728Z,0.00
2018-09-01T02:54:55.723Z,0.00
2018-09-01T02:55:55.726Z,0.00
2018-09-01T02:56:55.776Z,0.00
2018-09-01T02:57:55.760Z,0.00
2018-09-01T02:58:55.736Z,0.00
2018-09-01T02:59:55.780Z,0.00
2018-09-01T03:00:55.779Z,0.00
2018-09-01T03:01:55.827Z,0.00
2018-09-01T03:02:55.813Z,0.00
2018-09-01T03:03:55.795Z,0.00
2018-09-01T03:04:55.843Z,0.00
2018-09-01T03:05:55.826Z,0.00
2018-09-01T03:06:55.817Z,0.00
2018-09-01T03:07:55.833Z,0.00
2018-09-01T03:08:55.899Z,0.00
2018-09-01T03:09:55.864Z,0.00
2018-09-01T03:10:55.861Z,0.00
2018-09-01T03:11:55.874Z,0.00
2018-09-01T03:12:55.868Z,0.00
2018-09-01T03:13:55.935Z,0.00
2018-09-01T03:14:55.944Z,0.00
2018-09-01T03:15:55.920Z,0.00
2018-09-01T03:16:55.920Z,0.00
2018-09-01T03:17:55.915Z,0.00
2018-09-01T03:18:55.942Z,0.00
2018-09-01T03:19:55.993Z,0.00
2018-09-01T03:20:55.951Z,0.00
2018-09-01T03:21:55.982Z,0.00
2018-09-01T03:22:55.977Z,0.00
2018-09-01T03:23:55.987Z,0.00
2018-09-01T03:24:56.020Z,0.00
2018-09-01T03:25:56.034Z,0.00
2018-09-01T03:26:56.048Z,0.00
2018-09-01T03:27:56.029Z,0.00
2018-09-01T03:28:56.036Z,0.00
2018-09-01T03:29:56.037Z,0.00
2018-09-01T03:30:56.102Z,0.00
2018-09-01T03:31:56.072Z,0.00
2018-09-01T03:32:56.110Z,0.00
2018-09-01T03:33:56.080Z,0.00
2018-09-01T03:34:56.074Z,0.00
2018-09-01T03:35:56.126Z,0.00
2018-09-01T03:36:56.095Z,0.00
2018-09-01T03:37:56.147Z,0.00
2018-09-01T03:38:56.129Z,0.00
2018-09-01T03:39:56.167Z,0.00
2018-09-01T03:40:56.161Z,0.00
2018-09-01T03:41:56.161Z,0.00
2018-09-01T03:42:56.160Z,0.00
2018-09-01T03:43:56.156Z,0.00
2018-09-01T03:44:56.206Z,0.00
2018-09-01T03:45:56.209Z,0.00
2018-09-01T03:46:56.199Z,0.00
2018-09-01T03:47:56.204Z,0.00
2018-09-01T03:48:56.223Z,0.00
2018-09-01T03:49:56.246Z,0.00
2018-09-01T03:50:56.264Z,0.00
2018-09-01T03:51:56.296Z,0.00
2018-09-01T03:52:56.247Z,0.00
2018-09-01T03:53:56.256Z,0.00
2018-09-01T03:54:56.271Z,0.00
2018-09-01T03:55:56.303Z,0.00
2018-09-01T03:56:56.291Z,0.00
2018-09-01T03:57:56.329Z,0.00
2018-09-01T03:58:56.325Z,0.00
2018-09-01T03:59:56.388Z,0.00
2018-09-01T04:00:56.322Z,0.00
2018-09-01T04:01:56.340Z,0.00
2018-09-01T04:02:56.412Z,0.00
2018-09-01T04:03:56.379Z,0.00
2018-09-01T04:04:56.369Z,0.00
2018-09-01T04:05:56.380Z,0.00
2018-09-01T04:06:56.390Z,0.00
2018-09-01T04:07:56.396Z,0.00
2018-09-01T04:08:56.419Z,0.00
2018-09-01T04:09:56.424Z,0.00
2018-09-01T04:10:56.420Z,0.00
2018-09-01T04:11:56.455Z,0.00
2018-09-01T04:12:56.447Z,5.63
2018-09-01T04:13:56.472Z,5.63
2018-09-01T04:14:56.465Z,5.63
2018-09-01T04:15:56.488Z,5.63
2018-09-01T04:16:56.503Z,5.63
2018-09-01T04:17:56.525Z,5.63
2018-09-01T04:18:56.518Z,11.25
2018-09-01T04:19:56.530Z,11.25
2018-09-01T04:20:56.522Z,11.25
2018-09-01T04:21:56.527Z,11.25
2018-09-01T04:22:56.559Z,11.25
2018-09-01T04:23:56.553Z,16.88
2018-09-01T04:24:56.557Z,16.88
2018-09-01T04:25:56.561Z,22.50
2018-09-01T04:26:56.626Z,22.50
2018-09-01T04:27:56.613Z,22.50
2018-09-01T04:28:56.611Z,22.50
2018-09-01T04:29:56.628Z,22.50
2018-09-01T04:30:56.600Z,22.50
2018-09-01T04:31:56.622Z,28.13
2018-09-01T04:32:56.638Z,28.13
2018-09-01T04:33:56.646Z,28.13
2018-09-01T04:34:56.688Z,28.13
2018-09-01T04:35:56.677Z,28.13
2018-09-01T04:36:56.666Z,33.75
2018-09-01T04:37:56.655Z,33.75
2018-09-01T04:38:56.688Z,33.75
2018-09-01T04:39:56.686Z,33.75
2018-09-01T04:40:56.734Z,39.38
2018-09-01T04:41:56.748Z,39.38
2018-09-01T04:42:56.741Z,45.00
2018-09-01T04:43:56.723Z,45.00
2018-09-01T04:44:56.733Z,45.00
2018-09-01T04:45:56.748Z,45.00
2018-09-01T04:46:56.843Z,50.63
2018-09-01T04:47:56.762Z,50.63
2018-09-01T04:48:56.781Z,56.25
2018-09-01T04:49:56.790Z,56.25
2018-09-01T04:50:56.804Z,61.88
2018-09-01T04:51:56.830Z,61.88
2018-09-01T04:52:56.798Z,67.50
2018-09-01T04:53:56.834Z,67.50
2018-09-01T04:54:56.841Z,73.13
2018-09-01T04:55:56.831Z,67.50
2018-09-01T04:56:56.885Z,73.13
2018-09-01T04:57:56.858Z,78.75
2018-09-01T04:58:56.885Z,78.75
2018-09-01T04:59:56.875Z,84.38
2018-09-01T05:00:57.014Z,90.00
2018-09-01T05:01:56.890Z,90.00
2018-09-01T05:02:56.902Z,90.00
2018-09-01T05:03:56.951Z,90.00
2018-09-01T05:04:56.933Z,95.63
2018-09-01T05:05:56.949Z,101.25
2018-09-01T05:06:56.977Z,101.25
2018-09-01T05:07:56.973Z,106.88
2018-09-01T05:08:56.954Z,106.88
2018-09-01T05:09:56.985Z,112.50
2018-09-01T05:10:57.030Z,118.13
2018-09-01T05:11:57.006Z,123.75
2018-09-01T05:12:56.992Z,123.75
2018-09-01T05:13:56.999Z,123.75
2018-09-01T05:14:57.018Z,118.13
2018-09-01T05:15:57.028Z,118.13
2018-09-01T05:16:57.075Z,118.13
2018-09-01T05:17:57.050Z,118.13
2018-09-01T05:18:57.046Z,123.75
2018-09-01T05:19:57.062Z,123.75
2018-09-01T05:20:57.062Z,123.75
2018-09-01T05:21:57.108Z,129.38
2018-09-01T05:22:57.117Z,135.00
2018-09-01T05:23:57.161Z,140.63
2018-09-01T05:24:57.111Z,151.88
2018-09-01T05:25:57.132Z,157.50
2018-09-01T05:26:57.147Z,163.13
2018-09-01T05:27:57.168Z,163.13
2018-09-01T05:28:57.186Z,151.88
2018-09-01T05:29:57.165Z,151.88
2018-09-01T05:30:57.182Z,163.13
2018-09-01T05:31:57.191Z,163.13
2018-09-01T05:32:57.199Z,168.75
2018-09-01T05:33:57.231Z,168.75
2018-09-01T05:34:57.195Z,168.75
2018-09-01T05:35:57.236Z,168.75
2018-09-01T05:36:57.248Z,174.38
2018-09-01T05:37:57.218Z,185.63
2018-09-01T05:38:57.229Z,191.25
2018-09-01T05:39:57.272Z,208.13
2018-09-01T05:40:57.302Z,208.13
2018-09-01T05:41:57.260Z,213.75
2018-09-01T05:42:57.296Z,213.75
2018-09-01T05:43:57.329Z,196.88
2018-09-01T05:44:57.318Z,208.13
2018-09-01T05:45:57.362Z,208.13
2018-09-01T05:46:57.324Z,208.13
2018-09-01T05:47:57.347Z,202.50
2018-09-01T05:48:57.335Z,208.13
2018-09-01T05:49:57.368Z,202.50
2018-09-01T05:50:57.355Z,191.25
2018-09-01T05:51:57.434Z,196.88
2018-09-01T05:52:57.366Z,191.25
2018-09-01T05:53:57.404Z,180.00
2018-09-01T05:54:57.398Z,191.25
2018-09-01T05:55:57.412Z,191.25
2018-09-01T05:56:57.452Z,180.00
2018-09-01T05:57:57.488Z,196.88
2018-09-01T05:58:57.455Z,174.38
2018-09-01T05:59:57.465Z,180.00
2018-09-01T06:00:57.471Z,168.75
2018-09-01T06:01:57.480Z,196.88
2018-09-01T06:02:57.484Z,196.88
2018-09-01T06:03:57.558Z,202.50
2018-09-01T06:04:57.513Z,202.50
2018-09-01T06:05:57.519Z,208.13
2018-09-01T06:06:57.559Z,208.13
2018-09-01T06:07:57.541Z,202.50
2018-09-01T06:08:57.589Z,208.13
2018-09-01T06:09:57.584Z,208.13
2018-09-01T06:10:57.601Z,213.75
2018-09-01T06:11:57.575Z,208.13
2018-09-01T06:12:57.592Z,196.88
2018-09-01T06:13:57.631Z,196.88
2018-09-01T06:14:57.604Z,196.88
2018-09-01T06:15:57.636Z,196.88
2018-09-01T06:16:57.621Z,202.50
2018-09-01T06:17:57.843Z,219.38
2018-09-01T06:18:57.644Z,213.75
2018-09-01T06:19:57.651Z,219.38
2018-09-01T06:20:57.666Z,219.38
2018-09-01T06:21:57.684Z,213.75
2018-09-01T06:22:57.715Z,213.75
2018-09-01T06:23:57.732Z,202.50
2018-09-01T06:24:57.786Z,191.25
2018-09-01T06:25:57.735Z,185.63
2018-09-01T06:26:57.750Z,191.25
2018-09-01T06:27:57.823Z,191.25
2018-09-01T06:28:57.755Z,191.25
2018-09-01T06:29:57.814Z,180.00
2018-09-01T06:30:57.821Z,191.25
2018-09-01T06:31:57.795Z,202.50
2018-09-01T06:32:57.801Z,202.50
2018-09-01T06:33:57.801Z,208.13
2018-09-01T06:34:57.835Z,219.38
2018-09-01T06:35:57.835Z,219.38
2018-09-01T06:36:57.841Z,219.38
2018-09-01T06:37:57.833Z,225.00
2018-09-01T06:38:57.871Z,219.38
2018-09-01T06:39:57.873Z,225.00
2018-09-01T06:40:57.887Z,230.63
2018-09-01T06:41:57.904Z,230.63
2018-09-01T06:42:57.954Z,241.88
2018-09-01T06:43:57.910Z,236.25
2018-09-01T06:44:57.924Z,236.25
2018-09-01T06:45:57.952Z,230.63
2018-09-01T06:46:57.986Z,225.00
2018-09-01T06:47:57.955Z,219.38
2018-09-01T06:48:57.970Z,219.38
2018-09-01T06:49:57.981Z,213.75
2018-09-01T06:50:58.015Z,208.13
2018-09-01T06:51:58.017Z,202.50
2018-09-01T06:52:58.046Z,196.88
2018-09-01T06:53:58.041Z,196.88
2018-09-01T06:54:58.043Z,191.25
2018-09-01T06:55:58.146Z,191.25
2018-09-01T06:56:58.060Z,191.25
2018-09-01T06:57:58.061Z,191.25
2018-09-01T06:58:58.092Z,196.88
2018-09-01T06:59:58.106Z,196.88
2018-09-01T07:00:58.194Z,196.88
2018-09-01T07:01:58.105Z,196.88
2018-09-01T07:02:58.105Z,191.25
2018-09-01T07:03:58.146Z,191.25
2018-09-01T07:04:58.130Z,191.25
2018-09-01T07:05:58.158Z,185.63
2018-09-01T07:06:58.186Z,191.25
2018-09-01T07:07:58.347Z,196.88
2018-09-01T07:08:58.191Z,208.13
2018-09-01T07:09:58.235Z,208.13
2018-09-01T07:10:58.216Z,219.38
2018-09-01T07:11:58.352Z,230.63
2018-09-01T07:12:58.222Z,241.88
2018-09-01T07:13:58.267Z,230.63
2018-09-01T07:14:58.296Z,241.88
2018-09-01T07:15:58.294Z,236.25
2018-09-01T07:16:58.266Z,230.63
2018-09-01T07:17:58.300Z,230.63
2018-09-01T07:18:58.299Z,230.63
2018-09-01T07:19:58.351Z,230.63
2018-09-01T07:20:58.300Z,230.63
2018-09-01T07:21:58.332Z,230.63
2018-09-01T07:22:58.364Z,225.00
2018-09-01T07:23:58.343Z,225.00
2018-09-01T07:24:58.381Z,219.38
2018-09-01T07:25:58.364Z,213.75
2018-09-01T07:26:58.440Z,208.13
2018-09-01T07:27:58.387Z,202.50
2018-09-01T07:28:58.402Z,196.88
2018-09-01T07:29:58.427Z,196.88
2018-09-01T07:30:58.870Z,191.25
2018-09-01T07:31:58.439Z,191.25
2018-09-01T07:32:58.464Z,185.63
2018-09-01T07:33:58.457Z,185.63
2018-09-01T07:34:58.490Z,180.00
2018-09-01T07:35:58.471Z,180.00
2018-09-01T07:36:58.496Z,180.00
2018-09-01T07:37:58.526Z,180.00
2018-09-01T07:38:58.501Z,180.00
2018-09-01T07:39:58.500Z,174.38
2018-09-01T07:40:58.519Z,174.38
2018-09-01T07:41:58.536Z,174.38
2018-09-01T07:42:58.578Z,174.38
2018-09-01T07:43:58.581Z,174.38
2018-09-01T07:44:58.626Z,168.75
2018-09-01T07:45:58.582Z,174.38
2018-09-01T07:46:58.611Z,168.75
2018-09-01T07:47:58.635Z,168.75
2018-09-01T07:48:58.623Z,168.75
2018-09-01T07:49:58.686Z,168.75
2018-09-01T07:50:58.629Z,168.75
2018-09-01T07:51:58.663Z,174.38
2018-09-01T07:52:58.679Z,174.38
2018-09-01T07:53:58.669Z,174.38
2018-09-01T07:54:58.675Z,174.38
2018-09-01T07:55:58.747Z,168.75
2018-09-01T07:56:58.721Z,168.75
2018-09-01T07:57:58.714Z,168.75
2018-09-01T07:58:58.757Z,168.75
2018-09-01T07:59:58.773Z,168.75
2018-09-01T08:00:58.744Z,168.75
2018-09-01T08:01:58.779Z,168.75
2018-09-01T08:02:58.749Z,168.75
2018-09-01T08:03:58.781Z,168.75
2018-09-01T08:04:58.846Z,168.75
2018-09-01T08:05:58.842Z,168.75
2018-09-01T08:06:58.839Z,168.75
2018-09-01T08:07:58.838Z,168.75
2018-09-01T08:08:59.098Z,168.75
2018-09-01T08:09:58.870Z,168.75
2018-09-01T08:10:58.901Z,168.75
2018-09-01T08:11:58.882Z,168.75
2018-09-01T08:12:59.045Z,168.75
2018-09-01T08:13:58.966Z,168.75
2018-09-01T08:14:58.879Z,163.13
2018-09-01T08:15:58.914Z,163.13
2018-09-01T08:16:58.962Z,163.13
2018-09-01T08:17:58.972Z,163.13
2018-09-01T08:18:58.934Z,163.13
2018-09-01T08:19:58.949Z,163.13
2018-09-01T08:20:58.991Z,163.13
2018-09-01T08:21:59.003Z,163.13
2018-09-01T08:22:58.964Z,163.13
2018-09-01T08:23:58.990Z,163.13
2018-09-01T08:24:59.012Z,163.13
2018-09-01T08:25:59.035Z,163.13
2018-09-01T08:26:59.119Z,163.13
2018-09-01T08:27:59.041Z,163.13
2018-09-01T08:28:59.079Z,163.13
2018-09-01T08:29:59.056Z,168.75
2018-09-01T08:30:59.049Z,168.75
2018-09-01T08:31:59.132Z,168.75
2018-09-01T08:32:59.110Z,168.75
2018-09-01T08:33:59.166Z,168.75
2018-09-01T08:34:59.147Z,168.75
2018-09-01T08:35:59.142Z,163.13
2018-09-01T08:36:59.221Z,163.13
2018-09-01T08:37:59.306Z,163.13
2018-09-01T08:38:59.151Z,163.13
2018-09-01T08:39:59.177Z,163.13
2018-09-01T08:40:59.172Z,157.50
2018-09-01T08:41:59.186Z,157.50
2018-09-01T08:42:59.179Z,157.50
2018-09-01T08:43:59.245Z,157.50
2018-09-01T08:44:59.211Z,157.50
2018-09-01T08:45:59.223Z,157.50
2018-09-01T08:46:59.216Z,157.50
2018-09-01T08:47:59.258Z,157.50
2018-09-01T08:48:59.301Z,157.50
2018-09-01T08:49:59.303Z,157.50
2018-09-01T08:50:59.289Z,157.50
2018-09-01T08:51:59.298Z,157.50
2018-09-01T08:52:59.305Z,163.13
2018-09-01T08:53:59.321Z,168.75
2018-09-01T08:54:59.368Z,174.38
2018-09-01T08:55:59.383Z,185.63
2018-09-01T08:56:59.351Z,191.25
2018-09-01T08:57:59.340Z,191.25
2018-09-01T08:58:59.351Z,191.25
2018-09-01T08:59:59.391Z,191.25
2018-09-01T09:00:59.540Z,191.25
2018-09-01T09:01:59.430Z,185.63
2018-09-01T09:02:59.427Z,180.00
2018-09-01T09:03:59.416Z,174.38
2018-09-01T09:04:59.444Z,168.75
2018-09-01T09:05:59.448Z,168.75
2018-09-01T09:06:59.457Z,168.75
2018-09-01T09:07:59.510Z,168.75
2018-09-01T09:08:59.467Z,174.38
2018-09-01T09:09:59.468Z,174.38
2018-09-01T09:10:59.531Z,185.63
2018-09-01T09:11:59.530Z,202.50
2018-09-01T09:12:59.523Z,213.75
2018-09-01T09:13:59.525Z,236.25
2018-09-01T09:14:59.554Z,264.38
2018-09-01T09:15:59.631Z,253.13
2018-09-01T09:16:59.594Z,225.00
2018-09-01T09:17:59.588Z,213.75
2018-09-01T09:18:59.572Z,202.50
2018-09-01T09:19:59.590Z,202.50
2018-09-01T09:20:59.646Z,219.38
2018-09-01T09:21:59.644Z,247.50
2018-09-01T09:22:59.633Z,253.13
2018-09-01T09:23:59.661Z,258.75
2018-09-01T09:24:59.670Z,258.75
2018-09-01T09:25:59.985Z,264.38
2018-09-01T09:26:59.675Z,292.50
2018-09-01T09:27:59.699Z,320.63
2018-09-01T09:28:59.696Z,326.25
2018-09-01T09:29:59.739Z,343.13
2018-09-01T09:30:59.720Z,365.63
2018-09-01T09:31:59.766Z,410.63
2018-09-01T09:32:59.804Z,450.00
2018-09-01T09:33:59.746Z,399.38
2018-09-01T09:34:59.770Z,382.50
2018-09-01T09:35:59.755Z,343.13
2018-09-01T09:36:59.814Z,320.63
2018-09-01T09:37:59.812Z,309.38
2018-09-01T09:38:59.968Z,320.63
2018-09-01T09:39:59.825Z,326.25
2018-09-01T09:40:59.838Z,331.88
2018-09-01T09:41:59.940Z,343.13
2018-09-01T09:42:59.894Z,337.50
2018-09-01T09:43:59.869Z,326.25
2018-09-01T09:44:59.873Z,298.13
2018-09-01T09:45:59.894Z,292.50
2018-09-01T09:46:59.968Z,292.50
2018-09-01T09:47:59.997Z,286.88
2018-09-01T09:48:59.919Z,286.88
2018-09-01T09:49:59.961Z,286.88
2018-09-01T09:50:59.934Z,303.75
2018-09-01T09:52:00.018Z,343.13
2018-09-01T09:53:00.050Z,360.00
2018-09-01T09:53:59.985Z,410.63
2018-09-01T09:55:00.004Z,438.75
2018-09-01T09:56:00.046Z,444.38
2018-09-01T09:57:00.032Z,472.50
2018-09-01T09:58:00.080Z,495.00
2018-09-01T09:59:00.052Z,478.13
2018-09-01T10:00:00.043Z,466.88
2018-09-01T10:01:00.094Z,444.38
2018-09-01T10:02:00.235Z,444.38
2018-09-01T10:03:00.158Z,433.13
2018-09-01T10:04:00.100Z,399.38
2018-09-01T10:05:00.121Z,343.13
2018-09-01T10:06:00.338Z,286.88
2018-09-01T10:07:00.193Z,253.13
2018-09-01T10:08:00.177Z,219.38
2018-09-01T10:09:00.207Z,191.25
2018-09-01T10:10:00.161Z,180.00
2018-09-01T10:11:00.206Z,174.38
2018-09-01T10:12:00.216Z,174.38
2018-09-01T10:13:00.236Z,168.75
2018-09-01T10:14:00.200Z,174.38
2018-09-01T10:15:00.252Z,174.38
2018-09-01T10:16:00.367Z,180.00
2018-09-01T10:17:00.426Z,180.00
2018-09-01T10:18:00.296Z,180.00
2018-09-01T10:19:00.296Z,180.00
2018-09-01T10:20:00.397Z,185.63
2018-09-01T10:21:00.326Z,185.63
2018-09-01T10:22:00.469Z,185.63
2018-09-01T10:23:00.333Z,185.63
2018-09-01T10:24:00.355Z,191.25
2018-09-01T10:25:00.387Z,202.50
2018-09-01T10:26:00.413Z,208.13
2018-09-01T10:27:00.437Z,208.13
2018-09-01T10:28:00.460Z,208.13
2018-09-01T10:29:00.412Z,213.75
2018-09-01T10:30:00.432Z,219.38
2018-09-01T10:31:00.442Z,225.00
2018-09-01T10:32:00.466Z,230.63
2018-09-01T10:33:00.457Z,247.50
2018-09-01T10:34:00.522Z,247.50
2018-09-01T10:35:00.482Z,253.13
2018-09-01T10:36:00.493Z,270.00
2018-09-01T10:37:00.492Z,286.88
2018-09-01T10:38:00.507Z,315.00
2018-09-01T10:39:00.546Z,331.88
2018-09-01T10:40:00.519Z,354.38
2018-09-01T10:41:00.542Z,382.50
2018-09-01T10:42:00.554Z,410.63
2018-09-01T10:43:00.591Z,427.50
2018-09-01T10:44:00.615Z,433.13
2018-09-01T10:45:00.576Z,410.63
2018-09-01T10:46:00.593Z,382.50
2018-09-01T10:47:00.611Z,354.38
2018-09-01T10:48:00.733Z,320.63
2018-09-01T10:49:00.652Z,309.38
2018-09-01T10:50:00.704Z,315.00
2018-09-01T10:51:00.646Z,315.00
2018-09-01T10:52:00.654Z,309.38
2018-09-01T10:53:00.685Z,315.00
2018-09-01T10:54:00.712Z,326.25
2018-09-01T10:55:00.704Z,348.75
2018-09-01T10:56:00.823Z,343.13
2018-09-01T10:57:00.743Z,354.38
2018-09-01T10:58:00.823Z,365.63
2018-09-01T10:59:00.821Z,376.88
2018-09-01T11:00:00.757Z,388.13
2018-09-01T11:01:00.816Z,399.38
2018-09-01T11:02:00.779Z,405.00
2018-09-01T11:03:00.926Z,416.25
2018-09-01T11:04:00.904Z,416.25
2018-09-01T11:05:00.882Z,405.00
2018-09-01T11:06:00.840Z,410.63
2018-09-01T11:07:00.863Z,421.88
2018-09-01T11:08:00.908Z,427.50
2018-09-01T11:09:00.857Z,416.25
2018-09-01T11:10:00.870Z,399.38
2018-09-01T11:11:00.920Z,376.88
2018-09-01T11:12:00.905Z,343.13
2018-09-01T11:13:00.946Z,309.38
2018-09-01T11:14:00.939Z,298.13
2018-09-01T11:15:00.988Z,292.50
2018-09-01T11:16:00.957Z,292.50
2018-09-01T11:17:00.985Z,298.13
2018-09-01T11:18:01.039Z,303.75
2018-09-01T11:19:00.985Z,303.75
2018-09-01T11:20:01.054Z,303.75
2018-09-01T11:21:01.146Z,309.38
2018-09-01T11:22:01.041Z,320.63
2018-09-01T11:23:01.022Z,337.50
2018-09-01T11:24:01.063Z,337.50
2018-09-01T11:25:01.102Z,348.75
2018-09-01T11:26:01.077Z,365.63
2018-09-01T11:27:01.169Z,393.75
2018-09-01T11:28:01.915Z,410.63
2018-09-01T11:29:01.114Z,416.25
2018-09-01T11:30:01.132Z,427.50
2018-09-01T11:31:01.132Z,427.50
2018-09-01T11:32:01.150Z,427.50
2018-09-01T11:33:01.190Z,433.13
2018-09-01T11:34:01.205Z,427.50
2018-09-01T11:35:01.182Z,421.88
2018-09-01T11:36:01.246Z,416.25
2018-09-01T11:37:01.219Z,405.00
2018-09-01T11:38:01.228Z,410.63
2018-09-01T11:39:01.268Z,416.25
2018-09-01T11:40:01.301Z,421.88
2018-09-01T11:41:01.277Z,450.00
2018-09-01T11:42:01.296Z,472.50
2018-09-01T11:43:01.440Z,495.00
2018-09-01T11:44:01.297Z,517.50
2018-09-01T11:45:01.349Z,511.88
2018-09-01T11:46:01.329Z,506.25
2018-09-01T11:47:01.348Z,511.88
2018-09-01T11:48:01.349Z,478.13
2018-09-01T11:49:01.351Z,461.25
2018-09-01T11:50:01.441Z,466.88
2018-09-01T11:51:01.371Z,410.63
2018-09-01T11:52:01.482Z,399.38
2018-09-01T11:53:01.445Z,399.38
2018-09-01T11:54:01.456Z,416.25
2018-09-01T11:55:01.464Z,416.25
2018-09-01T11:56:01.528Z,416.25
2018-09-01T11:57:01.502Z,405.00
2018-09-01T11:58:01.484Z,388.13
2018-09-01T11:59:01.496Z,360.00
2018-09-01T12:00:01.523Z,343.13
2018-09-01T12:01:01.508Z,326.25
2018-09-01T12:02:01.568Z,315.00
2018-09-01T12:03:01.576Z,309.38
2018-09-01T12:04:01.596Z,309.38
2018-09-01T12:05:01.594Z,315.00
2018-09-01T12:06:01.614Z,320.63
2018-09-01T12:07:01.625Z,326.25
2018-09-01T12:08:01.604Z,337.50
2018-09-01T12:09:01.724Z,365.63
2018-09-01T12:10:01.664Z,393.75
2018-09-01T12:11:01.665Z,421.88
2018-09-01T12:12:01.692Z,421.88
2018-09-01T12:13:01.683Z,410.63
2018-09-01T12:14:01.718Z,399.38
2018-09-01T12:15:01.786Z,388.13
2018-09-01T12:16:01.714Z,388.13
2018-09-01T12:17:01.716Z,399.38
2018-09-01T12:18:01.721Z,410.63
2018-09-01T12:19:01.779Z,416.25
2018-09-01T12:20:01.779Z,399.38
2018-09-01T12:21:01.767Z,382.50
2018-09-01T12:22:01.793Z,365.63
2018-09-01T12:23:01.807Z,354.38
2018-09-01T12:24:01.897Z,371.25
2018-09-01T12:25:01.837Z,388.13
2018-09-01T12:26:01.880Z,388.13
2018-09-01T12:27:01.942Z,382.50
2018-09-01T12:28:01.896Z,365.63
2018-09-01T12:29:01.877Z,360.00
2018-09-01T12:30:01.891Z,348.75
2018-09-01T12:31:01.969Z,343.13
2018-09-01T12:32:01.911Z,354.38
2018-09-01T12:33:01.931Z,365.63
2018-09-01T12:34:02.126Z,371.25
2018-09-01T12:35:01.949Z,376.88
2018-09-01T12:36:01.998Z,382.50
2018-09-01T12:37:02.027Z,382.50
2018-09-01T12:38:02.013Z,376.88
2018-09-01T12:39:02.085Z,365.63
2018-09-01T12:40:02.024Z,360.00
2018-09-01T12:41:02.099Z,348.75
2018-09-01T12:42:02.081Z,354.38
2018-09-01T12:43:02.079Z,337.50
2018-09-01T12:44:02.079Z,331.88
2018-09-01T12:45:02.097Z,331.88
2018-09-01T12:46:02.145Z,326.25
2018-09-01T12:47:02.124Z,320.63